Flight Track Log - Related Links

Times and Time Zones

All times are in EDT time to prevent confusion due to time zone crossing. See the SWA910 flight status page for this flight to view local times or setup timezone preferences in your user account.

Time Position Orientation Groundspeed Altitude Reporting Facility
EDT Latitude Longitude Course Direction KTS MPH feet Rate Location/Type
10:49AM 36.0761 -115.1683 249° West 180 207 3,100  Level Los Angeles Center
10:50AM 36.0456 -115.2661 249° West 249 287 5,600 1,916 Climbing Los Angeles Center
10:51AM 36.0144 -115.2792 199° South 262 302 6,900 2,945 Climbing Los Angeles Center
10:51AM 35.9806 -115.2953 201° Southwest 277 319 8,300 3,290 Climbing Los Angeles Center
10:52AM 35.9350 -115.2792 164° South 289 333 10,300 2,907 Climbing Los Angeles Center
10:53AM 35.9231 -115.1733 98° East 331 381 13,000 2,952 Climbing Los Angeles Center
10:54AM 35.9233 -115.0436 90° East 357 411 16,400 3,242 Climbing Los Angeles Center
10:55AM 35.9239 -114.9175 90° East 369 425 19,700 2,829 Climbing Los Angeles Center
10:56AM 35.9228 -114.7861 91° East 392 451 22,200 1,951 Climbing Los Angeles Center
10:57AM 35.9236 -114.6467 90° East 404 465 23,700 2,468 Climbing Los Angeles Center
10:58AM 35.9239 -114.5122 90° East 396 456 27,300 2,613 Climbing Los Angeles Center
10:59AM 35.8811 -114.3661 110° East 397 457 29,100 1,403 Climbing Los Angeles Center
11:00AM 35.8239 -114.2403 119° Southeast 421 484 30,200 1,016 Climbing Los Angeles Center
11:01AM 35.7625 -114.1050 119° Southeast 447 514 31,200 1,161 Climbing Los Angeles Center
11:02AM 35.7061 -113.9800 119° Southeast 468 539 32,600 1,645 Climbing Los Angeles Center
11:03AM 35.6306 -113.8119 119° Southeast 470 541 34,600 1,597 Climbing Los Angeles Center
11:04AM 35.5669 -113.6719 119° Southeast 471 542 35,900 1,161 Climbing Los Angeles Center
11:05AM 35.5022 -113.5303 119° Southeast 477 549 37,000 532 Climbing Los Angeles Center
11:06AM 35.4367 -113.3881 119° Southeast 479 551 37,000  Level Los Angeles Center
11:07AM 35.3617 -113.2250 119° Southeast 481 554 37,000  Level Los Angeles Center
11:08AM 35.2958 -113.0831 120° Southeast 480 552 37,000  Level Los Angeles Center
11:09AM 35.2231 -112.9267 120° Southeast 478 550 37,000  Level Los Angeles Center
11:10AM 35.1569 -112.7864 120° Southeast 476 548 37,000  Level Los Angeles Center
11:11AM 35.0869 -112.6356 120° Southeast 485 558 37,000  Level Los Angeles Center
11:12AM 35.0206 -112.4947 120° Southeast 484 557 37,000  Level Los Angeles Center
11:13AM 34.9536 -112.3528 120° Southeast 484 557 37,000  Level Los Angeles Center
11:15AM 34.8697 -112.1828 121° Southeast 485 558 37,000  Level Albuquerque Center
11:16AM 34.8022 -112.0408 120° Southeast 486 559 37,000  Level Albuquerque Center
11:17AM 34.7297 -111.8911 120° Southeast 486 559 37,000 194 Level Albuquerque Center
11:18AM 34.6619 -111.7469 120° Southeast 486 559 37,400 484 Climbing Albuquerque Center
11:19AM 34.5919 -111.6033 121° Southeast 487 560 38,000 290 Climbing Albuquerque Center
11:20AM 34.5222 -111.4572 120° Southeast 494 568 38,000  Level Albuquerque Center
11:21AM 34.4506 -111.3125 121° Southeast 495 570 38,000  Level Albuquerque Center
11:22AM 34.3806 -111.1672 120° Southeast 495 570 38,000 484 Level Albuquerque Center
11:23AM 34.2953 -110.9950 121° Southeast 496 571 39,000 484 Climbing Albuquerque Center
11:24AM 34.2244 -110.8511 121° Southeast 496 571 39,000  Level Albuquerque Center
11:25AM 34.1583 -110.7172 121° Southeast 496 571 39,000  Level Albuquerque Center
11:26AM 34.0867 -110.5742 121° Southeast 496 571 39,000  Level Albuquerque Center
11:27AM 34.0164 -110.4331 121° Southeast 496 571 39,000  Level Albuquerque Center
11:28AM 33.9294 -110.2625 122° Southeast 496 571 39,000  Level Albuquerque Center
11:29AM 33.8589 -110.1200 121° Southeast 497 572 39,000  Level Albuquerque Center
11:30AM 33.7861 -109.9761 121° Southeast 500 575 39,000  Level Albuquerque Center
11:31AM 33.7144 -109.8331 121° Southeast 500 575 39,000  Level Albuquerque Center
11:32AM 33.6417 -109.6881 121° Southeast 504 580 39,000  Level Albuquerque Center
11:33AM 33.5539 -109.5164 121° Southeast 507 583 39,000  Level Albuquerque Center
11:34AM 33.4806 -109.3744 122° Southeast 505 581 39,000  Level Albuquerque Center
11:35AM 33.4072 -109.2336 122° Southeast 502 578 39,000  Level Albuquerque Center
11:36AM 33.3344 -109.0917 122° Southeast 502 578 39,000  Level Albuquerque Center
11:37AM 33.2589 -108.9486 122° Southeast 502 578 39,000  Level Albuquerque Center
11:38AM 33.1767 -108.7903 122° Southeast 502 578 39,000  Level Albuquerque Center
11:39AM 33.1092 -108.6625 122° Southeast 502 578 39,000  Level Albuquerque Center
11:40AM 33.0344 -108.5231 123° Southeast 501 577 39,000  Level Albuquerque Center
11:41AM 32.9464 -108.3553 122° Southeast 504 580 39,000  Level Albuquerque Center
11:42AM 32.8725 -108.2183 123° Southeast 494 568 39,000  Level Albuquerque Center
11:44AM 32.7939 -108.0714 122° Southeast 494 568 39,000  Level Albuquerque Center
11:45AM 32.7192 -107.9336 123° Southeast 494 568 39,000  Level Albuquerque Center
11:46AM 32.6453 -107.7950 122° Southeast 495 570 39,000  Level Albuquerque Center
11:47AM 32.5711 -107.6575 123° Southeast 496 571 39,000  Level Albuquerque Center
11:48AM 32.4856 -107.4986 123° Southeast 499 574 39,000  Level Albuquerque Center
11:49AM 32.4108 -107.3622 123° Southeast 499 574 39,000  Level Albuquerque Center
11:50AM 32.3367 -107.2236 122° Southeast 499 574 39,000  Level Albuquerque Center
11:51AM 32.2533 -107.0664 122° Southeast 494 568 39,000  Level Albuquerque Center
11:52AM 32.1778 -106.9317 124° Southeast 494 568 39,000  Level Albuquerque Center
11:53AM 32.1014 -106.7922 123° Southeast 493 567 39,000  Level Albuquerque Center
11:54AM 32.0253 -106.6561 123° Southeast 496 571 39,000  Level Albuquerque Center
11:55AM 31.9500 -106.5214 123° Southeast 496 571 39,000  Level Albuquerque Center
11:56AM 31.8664 -106.3747 124° Southeast 496 571 39,000  Level Albuquerque Center
11:57AM 31.8042 -106.2256 116° Southeast 507 583 39,000  Level Albuquerque Center
11:58AM 31.7614 -106.0644 107° East 515 593 39,000  Level Albuquerque Center
11:59AM 31.7203 -105.9017 106° East 518 596 39,000  Level Albuquerque Center
12:00PM 31.6792 -105.7386 106° East 519 597 39,000 -48 Level Albuquerque Center
12:01PM 31.6383 -105.5747 106° East 520 598 38,900  Descending Albuquerque Center
12:02PM 31.5900 -105.3811 106° East 518 596 39,000 48 Climbing Albuquerque Center
12:03PM 31.5481 -105.2203 107° East 517 595 39,000  Level Albuquerque Center
12:04PM 31.5083 -105.0594 106° East 516 594 39,000  Level Albuquerque Center
12:05PM 31.4669 -104.8994 107° East 514 592 39,000 -48 Level Albuquerque Center
12:06PM 31.4247 -104.7400 107° East 513 590 38,900  Descending Albuquerque Center
12:07PM 31.3858 -104.5825 106° East 509 586 39,000 48 Climbing Albuquerque Center
12:08PM 31.3447 -104.4250 107° East 507 583 39,000  Level Albuquerque Center
12:09PM 31.2942 -104.2336 107° East 509 586 39,000  Level Albuquerque Center
12:10PM 31.2522 -104.0767 107° East 509 586 39,000  Level Albuquerque Center
12:10PM 31.2522 -104.0767 107° East 509 586 39,000  Level Albuquerque Center
12:11PM 31.2092 -103.9194 108° East 508 585 39,000  Level Albuquerque Center
12:12PM 31.1656 -103.7567 107° East 508 585 39,000  Level Albuquerque Center
12:14PM 31.1214 -103.5997 108° East 510 587 39,000  Level Albuquerque Center
12:15PM 31.0781 -103.4436 108° East 510 587 39,000 435 Level Albuquerque Center
12:16PM 31.0258 -103.2553 108° East 511 588 39,900 871 Climbing Albuquerque Center
12:17PM 30.9858 -103.1006 107° East 506 582 40,800 528 Climbing Albuquerque Center
12:18PM 30.9428 -102.9456 108° East 506 582 41,000 96 Climbing Albuquerque Center
12:19PM 30.9019 -102.7869 107° East 509 586 41,000  Level Albuquerque Center
12:20PM 30.8614 -102.6297 107° East 510 587 41,000  Level Albuquerque Center
12:21PM 30.8139 -102.4425 106° East 510 587 41,000  Level Houston Center
12:22PM 30.7653 -102.2561 107° East 510 587 41,000  Level Houston Center
12:23PM 30.7247 -102.1019 107° East 509 586 41,000  Level Houston Center
12:24PM 30.6842 -101.9486 107° East 504 580 41,000  Level Houston Center
12:25PM 30.6425 -101.7958 108° East 502 578 41,000  Level Houston Center
12:26PM 30.6008 -101.6414 107° East 502 578 41,000  Level Houston Center
12:27PM 30.5533 -101.4619 107° East 503 579 41,000  Level Houston Center
12:28PM 30.5111 -101.3050 107° East 507 583 41,000  Level Houston Center
12:29PM 30.4664 -101.1494 108° East 508 585 41,000  Level Houston Center
12:31PM 30.2497 -100.9386 110° East 458 527 41,000  Level Houston Center
12:32PM 30.1472 -100.8558 145° Southeast 456 525 41,000 -576 Level Houston Center
12:33PM 30.0508 -100.7469 136° Southeast 469 540 39,800 -1,920 Descending Houston Center
12:34PM 30.0306 -100.5947 99° East 512 589 37,000 -3,194 Descending Houston Center
12:35PM 30.0144 -100.3908 95° East 531 611 33,200 -1,984 Descending Houston Center
12:36PM 30.0039 -100.2439 95° East 535 616 32,900 -97 Descending Houston Center
12:38PM 30.0147 -100.0756 86° East 509 586 33,000 -1,824 Climbing Houston Center
12:39PM 29.9994 -99.8853 95° East 500 575 29,100 -3,696 Descending Houston Center
12:40PM 29.9800 -99.7214 98° East 512 589 25,300 -3,484 Descending Houston Center
12:41PM 29.9594 -99.5608 98° East 510 587 21,900 -2,661 Descending Houston Center
12:42PM 29.9561 -99.4131 91° East 457 526 19,800 -2,032 Descending Houston Center
12:43PM 29.9983 -99.2831 69° East 433 498 17,700 -2,341 Descending Houston Center
12:43PM 29.9850 -99.2256 105° East 391 450 16,600 -2,476 Descending Houston Center
12:44PM 29.9539 -99.1706 123° Southeast 392 451 15,100 -2,680 Descending Houston Center
12:45PM 29.8803 -99.0592 127° Southeast 367 422 12,000 -3,000 Descending Houston Center
12:45PM 29.8778 -99.0506 109° East 371 427 12,000 -1,781 Level Houston Center
12:46PM 29.8256 -98.9561 122° Southeast 351 404 10,100 -1,450 Descending Houston Center
12:47PM 29.7919 -98.8647 113° Southeast 303 349 9,100 -968 Descending Houston Center
12:47PM 29.7925 -98.8625 74° East 320 368 9,100 -1,377 Level Houston Center
12:48PM 29.7589 -98.7747 114° Southeast 298 343 7,700 -1,548 Descending Houston Center
12:48PM 29.7578 -98.7683 101° East 302 348 7,500 -618 Descending Houston Center
12:49PM 29.7261 -98.6839 113° Southeast 288 331 7,000 -649 Descending Houston Center
12:50PM 29.7031 -98.6225 113° Southeast 249 287 6,300 -774 Descending Houston Center
12:50PM 29.6969 -98.6044 111° Southeast 254 292 6,200 -237 Descending Houston Center
12:51PM 29.6719 -98.5361 113° Southeast 232 267 6,000 -112 Descending Houston Center
12:52PM 29.6533 -98.4914 116° Southeast 197 227 6,000  Level Houston Center
12:52PM 29.6547 -98.4700 86° East 207 238 6,000 -774 Level Houston Center
12:53PM 29.6883 -98.4392 39° Northeast 226 260 5,200 -968 Descending Houston Center
12:53PM 29.7056 -98.4269 32° Northeast 226 260 5,000 -98 Descending Houston Center
12:54PM 29.7414 -98.3992 34° Northeast 230 265 5,100 97 Climbing Houston Center
12:54PM 29.7586 -98.3869 32° Northeast 228 262 5,100 -90 Level Houston Center
12:55PM 29.8022 -98.3531 34° Northeast 226 260 5,000 -95 Descending Houston Center
12:55PM 29.8150 -98.3436 33° Northeast 227 261 5,000  Level Houston Center
12:56PM 29.8444 -98.3094 45° Northeast 226 260 5,000  Level Houston Center
12:56PM 29.8578 -98.2906 51° Northeast 226 260 5,000  Level Houston Center
12:57PM 29.8536 -98.2506 97° East 195 224 5,000  Level Houston Center
12:57PM 29.8456 -98.2308 115° Southeast 187 215 5,000 98 Level Houston Center
12:58PM 29.8322 -98.2003 117° Southeast 175 201 5,100  Climbing Houston Center
12:58PM 29.8156 -98.1942 162° South 181 208 5,000 -97 Descending Houston Center
12:59PM 29.7931 -98.2097 211° Southwest 153 176 5,000  Level Houston Center
12:59PM 29.7800 -98.2269 229° Southwest 158 182 5,000 -444 Level Houston Center
01:00PM 29.7650 -98.2444 225° Southwest 156 180 4,600 -857 Descending Houston Center
01:00PM 29.7478 -98.2589 216° Southwest 157 181 4,100 -448 Descending Houston Center
01:01PM 29.7261 -98.2783 218° Southwest 151 174 4,100 97 Level Houston Center
01:01PM 29.7122 -98.2911 219° Southwest 155 178 4,200 98 Climbing Houston Center
01:02PM 29.6931 -98.3086 218° Southwest 154 177 4,200 -97 Level Houston Center
01:02PM 29.6772 -98.3228 218° Southwest 158 182 4,100 -625 Descending Houston Center
01:03PM 29.6661 -98.3336 220° Southwest 165 190 3,700 -1,161 Descending Houston Center
01:03PM 29.6369 -98.3597 218° Southwest 168 193 2,900 -835 Descending Houston Center
01:04PM 29.6178 -98.3781 220° Southwest 167 192 2,600 -484 Descending Houston Center
01:04PM 29.6036 -98.3906 217° Southwest 158 182 2,400 -490 Descending Houston Center
01:05PM 29.5928 -98.4025 224° Southwest 137 158 2,200 -677 Descending Houston Center
01:05PM 29.5769 -98.4175 219° Southwest 132 152 1,700 -655 Descending Houston Center
01:06PM 29.5675 -98.4250 215° Southwest 119 137 1,600 -667 Descending Houston Center
01:07PM 29.5478 -98.4453 222° Southwest 126 145 1,000 -766 Descending Houston Center

Login

Don't have an account? Register now (free) for customized features, flight alerts, and more!